Time;durP1;ratioP1;P1;durP2;ratioP2;P2;SDS_P1;SDS_P2;PMS_P1;PMS_P2;Temp;Humidity;BMP_temperature;BMP_pressure;BME280_temperature;BME280_humidity;BME280_pressure;Samples;Min_cycle;Max_cycle;Signal;HPM_P1;HPM_P2
2022/05/22 00:01:50;;;;;;;3.17;1.02;;;10.80;99.90;;;;;;4742888;30;20509;-89
2022/05/22 00:04:16;;;;;;;3.80;0.70;;;9.90;99.90;;;;;;4756834;30;20060;-90
2022/05/22 00:06:41;;;;;;;2.17;0.90;;;9.90;99.90;;;;;;4756143;30;20474;-90
2022/05/22 00:09:07;;;;;;;2.15;0.90;;;9.90;99.90;;;;;;4756289;30;20123;-89
2022/05/22 00:11:36;;;;;;;2.05;0.80;;;10.10;99.90;;;;;;4757690;30;20051;-91
2022/05/22 00:14:02;;;;;;;3.63;0.80;;;10.10;99.90;;;;;;4777317;30;20571;-93
2022/05/22 00:16:37;;;;;;;2.55;0.80;;;10.70;99.90;;;;;;4772711;30;20184;-88
2022/05/22 00:19:07;;;;;;;3.45;1.05;;;9.80;99.90;;;;;;4764714;30;20062;-91
2022/05/22 00:21:33;;;;;;;4.18;1.13;;;9.90;99.90;;;;;;4772048;30;20052;-91
2022/05/22 00:23:59;;;;;;;2.60;0.90;;;9.70;99.90;;;;;;4756024;30;20150;-88
2022/05/22 00:26:25;;;;;;;3.70;1.45;;;9.70;99.90;;;;;;4741419;30;20142;-92
2022/05/22 00:28:56;;;;;;;1.75;0.90;;;9.70;99.90;;;;;;4779424;30;20054;-94
2022/05/22 00:31:21;;;;;;;3.25;0.90;;;9.60;99.90;;;;;;4759978;30;20060;-92
2022/05/22 00:33:47;;;;;;;2.67;1.10;;;9.60;99.90;;;;;;4779037;30;20136;-89
2022/05/22 00:36:13;;;;;;;2.17;0.90;;;10.10;99.90;;;;;;4772194;30;20052;-89
2022/05/22 00:38:40;;;;;;;3.95;0.80;;;9.70;99.90;;;;;;4770344;30;20537;-89
2022/05/22 00:41:09;;;;;;;2.58;0.90;;;9.60;99.90;;;;;;4775068;30;20498;-89
2022/05/22 00:43:37;;;;;;;5.22;1.15;;;9.60;99.90;;;;;;4758282;30;20070;-90
2022/05/22 00:46:11;;;;;;;2.08;0.88;;;9.60;99.90;;;;;;4741367;30;20063;-91
2022/05/22 00:48:43;;;;;;;2.70;0.90;;;9.90;99.90;;;;;;4777230;30;20063;-92
2022/05/22 00:51:14;;;;;;;3.28;0.90;;;9.70;99.90;;;;;;4770891;30;20070;-88
2022/05/22 00:53:50;;;;;;;4.28;1.20;;;9.50;99.90;;;;;;4762025;30;20131;-88
2022/05/22 00:56:17;;;;;;;;;;;9.60;99.90;;;;;;4776843;30;20067;-92
2022/05/22 00:58:45;;;;;;;1.92;1.10;;;9.50;99.90;;;;;;4775213;29;20380;-91
2022/05/22 01:01:11;;;;;;;2.63;0.80;;;10.30;99.90;;;;;;4777010;30;20067;-92
2022/05/22 01:03:37;;;;;;;3.85;1.10;;;9.60;99.90;;;;;;4779410;30;20055;-91
2022/05/22 01:06:16;;;;;;;3.33;1.17;;;9.60;99.90;;;;;;4771838;30;20059;-93
2022/05/22 01:08:42;;;;;;;1.52;0.90;;;9.60;99.90;;;;;;4771381;30;20120;-91
2022/05/22 01:11:12;;;;;;;2.65;1.08;;;9.90;99.90;;;;;;4756059;30;20087;-92
2022/05/22 01:13:52;;;;;;;4.57;1.95;;;9.60;99.90;;;;;;4777611;30;20063;-90
2022/05/22 01:16:18;;;;;;;1.95;1.35;;;10.10;99.90;;;;;;4773413;30;20589;-89
2022/05/22 01:18:53;;;;;;;3.85;1.30;;;9.50;99.90;;;;;;4772013;30;20047;-94
2022/05/22 01:21:25;;;;;;;2.80;1.00;;;9.50;99.90;;;;;;4780934;30;20059;-94
2022/05/22 01:23:51;;;;;;;1.45;1.10;;;9.50;99.90;;;;;;4771343;30;20067;-91
2022/05/22 01:26:18;;;;;;;1.85;1.08;;;9.50;99.90;;;;;;4766740;30;20537;-93
2022/05/22 01:28:44;;;;;;;3.13;1.30;;;9.90;99.90;;;;;;4777816;30;20069;-91
2022/05/22 01:31:12;;;;;;;5.35;1.20;;;9.90;99.90;;;;;;4769258;30;20066;-92
2022/05/22 01:33:39;;;;;;;2.50;1.05;;;9.40;99.90;;;;;;4755592;30;20063;-89
2022/05/22 01:36:06;;;;;;;4.47;1.27;;;9.40;99.90;;;;;;4769600;30;20070;-93
2022/05/22 01:38:32;;;;;;;3.47;1.20;;;9.40;99.90;;;;;;4747438;30;20060;-90
2022/05/22 01:41:19;;;;;;;2.60;1.08;;;9.40;99.90;;;;;;4755481;30;20124;-91
2022/05/22 01:44:39;;;;;;;3.40;1.20;;;9.30;99.90;;;;;;4782118;30;20059;-94
2022/05/22 01:47:45;;;;;;;2.75;1.20;;;9.30;99.90;;;;;;4752047;30;20060;-93
2022/05/22 01:51:10;;;;;;;7.88;1.30;;;9.30;99.90;;;;;;4744276;30;20153;-92
2022/05/22 01:54:05;;;;;;;4.25;1.67;;;9.10;99.90;;;;;;4691680;30;20061;-91
2022/05/22 01:56:54;;;;;;;3.40;1.60;;;9.90;99.90;;;;;;4688786;30;20092;-93
2022/05/22 02:06:25;;;;;;;4.15;1.60;;;9.20;99.90;;;;;;4651080;30;20546;-92
2022/05/22 02:14:42;;;;;;;3.65;1.13;;;9.20;99.90;;;;;;4564098;24;20121;-93
2022/05/22 02:21:32;;;;;;;4.63;1.60;;;9.20;99.90;;;;;;4771674;30;19983;-92
2022/05/22 02:24:34;;;;;;;3.03;1.17;;;9.30;99.90;;;;;;4778531;30;20071;-92
2022/05/22 02:27:21;;;;;;;2.97;1.60;;;9.20;99.90;;;;;;4773143;30;20537;-91
2022/05/22 02:35:51;;;;;;;6.03;1.75;;;9.10;99.90;;;;;;4743913;30;20530;-90
2022/05/22 02:38:45;;;;;;;2.17;1.27;;;9.10;99.90;;;;;;4743008;30;20072;-91
2022/05/22 02:41:16;;;;;;;4.68;1.20;;;8.70;99.90;;;;;;4718972;30;20056;-93
2022/05/22 02:43:45;;;;;;;2.25;1.05;;;9.70;99.90;;;;;;4732861;30;20052;-90
2022/05/22 02:57:23;;;;;;;;;;;;;;;;;;;;;
2022/05/22 03:00:12;;;;;;;2.15;1.23;;;9.00;99.90;;;;;;4732573;30;20064;-87
2022/05/22 03:02:38;;;;;;;4.93;1.27;;;9.00;99.90;;;;;;4711033;30;20542;-88
2022/05/22 03:05:04;;;;;;;2.88;1.40;;;9.00;99.90;;;;;;4717751;30;20055;-87
2022/05/22 03:07:29;;;;;;;3.97;1.17;;;8.90;99.90;;;;;;4717584;30;20072;-87
2022/05/22 03:09:55;;;;;;;3.53;1.80;;;9.00;99.90;;;;;;4743400;30;20071;-88
2022/05/22 03:12:23;;;;;;;2.72;1.30;;;8.90;99.90;;;;;;4754880;30;20052;-89
2022/05/22 03:14:55;;;;;;;2.78;1.00;;;9.20;99.90;;;;;;4768999;30;20055;-88
2022/05/22 03:17:21;;;;;;;2.38;1.30;;;9.20;99.90;;;;;;4753052;30;20569;-87
2022/05/22 03:19:50;;;;;;;2.00;1.10;;;8.80;99.90;;;;;;4760829;30;20513;-88
2022/05/22 03:22:17;;;;;;;1.27;1.00;;;8.80;99.90;;;;;;4768664;30;20506;-90
2022/05/22 03:24:43;;;;;;;1.52;0.70;;;9.50;99.90;;;;;;4760534;30;20056;-87
2022/05/22 03:27:13;;;;;;;1.02;0.70;;;9.40;99.90;;;;;;4769120;30;20050;-87
2022/05/22 03:29:40;;;;;;;1.10;0.70;;;8.70;99.90;;;;;;4761277;30;20417;-88
2022/05/22 03:32:07;;;;;;;2.03;0.80;;;9.40;99.90;;;;;;4754288;30;20135;-90
2022/05/22 03:34:36;;;;;;;1.60;0.60;;;8.60;99.90;;;;;;4770439;30;20098;-89
2022/05/22 03:37:02;;;;;;;0.77;0.47;;;8.40;99.90;;;;;;4771111;30;20390;-87
2022/05/22 03:39:28;;;;;;;1.20;0.50;;;8.50;99.90;;;;;;4771139;30;20059;-91
2022/05/22 03:41:54;;;;;;;0.63;0.40;;;8.40;99.90;;;;;;4769617;30;20056;-88
2022/05/22 03:44:20;;;;;;;0.65;0.47;;;8.40;99.90;;;;;;4769758;30;20414;-89
2022/05/22 03:46:46;;;;;;;1.63;0.43;;;8.40;99.90;;;;;;4763585;30;20060;-90
2022/05/22 03:49:12;;;;;;;1.08;0.40;;;8.40;99.90;;;;;;4754101;30;20063;-88
2022/05/22 03:51:39;;;;;;;1.40;0.60;;;8.30;99.90;;;;;;4776307;30;20142;-88
2022/05/22 03:54:05;;;;;;;1.15;0.60;;;7.80;99.90;;;;;;4754065;30;20059;-88
2022/05/22 03:56:32;;;;;;;0.90;0.70;;;8.10;99.90;;;;;;4738686;30;20051;-88
2022/05/22 03:58:57;;;;;;;1.33;0.50;;;8.10;99.90;;;;;;4753770;30;20068;-91
2022/05/22 04:01:23;;;;;;;0.90;0.60;;;8.60;99.90;;;;;;4769202;30;20051;-91
2022/05/22 04:03:49;;;;;;;0.95;0.50;;;7.90;99.90;;;;;;4769011;30;20513;-88
2022/05/22 04:06:14;;;;;;;2.75;0.57;;;8.50;99.90;;;;;;4758399;30;20059;-89
2022/05/22 04:08:40;;;;;;;0.80;0.50;;;8.40;99.90;;;;;;4754383;30;20073;-91
2022/05/22 04:11:14;;;;;;;3.90;0.68;;;7.90;99.90;;;;;;4753255;30;20097;-93
2022/05/22 04:13:40;;;;;;;0.60;0.50;;;7.90;99.90;;;;;;4768256;30;20063;-89
2022/05/22 04:16:06;;;;;;;0.68;0.50;;;8.20;99.90;;;;;;4760016;30;20142;-89
2022/05/22 04:18:51;;;;;;;0.95;0.60;;;8.00;99.90;;;;;;4769330;30;20055;-92
2022/05/22 04:25:30;;;;;;;1.00;0.50;;;8.10;99.90;;;;;;4743155;30;20063;-91
2022/05/22 04:28:42;;;;;;;0.55;0.50;;;7.90;99.90;;;;;;4749429;30;20135;-91
2022/05/22 04:31:20;;;;;;;2.38;0.63;;;8.30;99.90;;;;;;4696923;30;20237;-88
2022/05/22 04:33:57;;;;;;;0.85;0.50;;;8.90;99.90;;;;;;4716698;30;20052;-88
2022/05/22 04:36:29;;;;;;;0.57;0.43;;;8.40;99.90;;;;;;4715164;30;20397;-91
2022/05/22 04:39:00;;;;;;;0.50;0.30;;;8.30;99.90;;;;;;4702668;30;20049;-90
2022/05/22 04:55:44;;;;;;;0.60;0.40;;;8.80;99.90;;;;;;4037055;24;20058;-85
2022/05/22 04:58:10;;;;;;;0.68;0.57;;;8.90;99.90;;;;;;4789536;30;20125;-89
2022/05/22 05:00:36;;;;;;;1.00;0.30;;;9.00;99.90;;;;;;4797147;29;20063;-92
2022/05/22 05:03:02;;;;;;;0.60;0.40;;;9.00;99.90;;;;;;4773317;30;20055;-92
2022/05/22 05:05:28;;;;;;;0.70;0.30;;;9.10;99.90;;;;;;4779292;29;20058;-91
2022/05/22 05:07:57;;;;;;;1.45;0.40;;;9.10;99.90;;;;;;4782703;29;20104;-90
2022/05/22 05:10:26;;;;;;;0.82;0.50;;;9.50;99.90;;;;;;4794233;29;20046;-92
2022/05/22 05:12:52;;;;;;;1.30;0.68;;;9.30;99.90;;;;;;4775846;30;20575;-90
2022/05/22 05:15:24;;;;;;;0.55;0.50;;;9.70;99.90;;;;;;4774125;30;20143;-91
2022/05/22 05:24:26;;;;;;;2.10;0.70;;;9.90;99.90;;;;;;5396890;24;20430;-90
2022/05/22 05:26:54;;;;;;;1.30;0.75;;;10.00;99.90;;;;;;4774980;30;20060;-89
2022/05/22 05:29:26;;;;;;;1.85;0.90;;;10.20;99.90;;;;;;4797146;29;20348;-92
2022/05/22 05:32:02;;;;;;;2.28;0.80;;;10.20;99.90;;;;;;4772996;30;20055;-89
2022/05/22 05:34:34;;;;;;;3.00;0.70;;;10.50;99.90;;;;;;4757257;30;20047;-90
2022/05/22 05:37:09;;;;;;;1.50;0.70;;;10.70;99.90;;;;;;4778185;29;20047;-89
2022/05/22 05:39:39;;;;;;;3.83;0.82;;;10.90;99.90;;;;;;4776796;29;20063;-88
2022/05/22 05:42:11;;;;;;;5.45;1.55;;;11.10;99.90;;;;;;4773622;30;20498;-88
2022/05/22 05:44:39;;;;;;;2.45;1.00;;;11.20;99.90;;;;;;4757776;30;20083;-89
2022/05/22 05:47:42;;;;;;;1.50;1.00;;;11.40;99.90;;;;;;4773299;29;20564;-86
2022/05/22 05:50:08;;;;;;;3.65;1.15;;;11.60;99.90;;;;;;4716209;29;20152;-90
2022/05/22 05:52:54;;;;;;;7.15;2.22;;;11.80;99.90;;;;;;4778674;30;20173;-87
2022/05/22 05:58:52;;;;;;;3.92;1.60;;;12.10;99.90;;;;;;5263433;24;20055;-88
2022/05/22 06:15:55;;;;;;;7.50;1.90;;;13.10;99.90;;;;;;5508318;24;20056;-88
2022/05/22 06:18:21;;;;;;;3.78;1.00;;;13.30;99.90;;;;;;4769306;24;20480;-87
2022/05/22 06:24:34;;;;;;;2.92;1.10;;;13.60;99.90;;;;;;4805836;24;20089;-87
2022/05/22 06:27:00;;;;;;;7.35;1.25;;;13.80;99.90;;;;;;4771749;30;20054;-88
2022/05/22 06:29:29;;;;;;;5.38;1.73;;;13.90;99.90;;;;;;4776391;29;20282;-88
2022/05/22 06:31:58;;;;;;;4.47;1.42;;;14.00;99.90;;;;;;4772450;30;20063;-89
2022/05/22 06:34:24;;;;;;;5.07;1.55;;;14.20;99.90;;;;;;4771786;30;20076;-87
2022/05/22 06:36:51;;;;;;;3.88;0.88;;;14.40;99.90;;;;;;4757615;30;20127;-86
2022/05/22 06:42:13;;;;;;;5.82;1.33;;;14.60;99.90;;;;;;4784727;30;20065;-84
2022/05/22 06:44:38;;;;;;;2.60;1.00;;;14.80;99.90;;;;;;4787728;30;20125;-86
2022/05/22 06:47:05;;;;;;;4.32;1.20;;;14.80;99.90;;;;;;4787751;29;20055;-83
2022/05/22 06:49:31;;;;;;;2.47;1.13;;;14.90;99.90;;;;;;4772507;29;20055;-86
2022/05/22 06:51:56;;;;;;;2.97;0.70;;;15.10;99.90;;;;;;4795548;29;20568;-82
2022/05/22 06:54:22;;;;;;;3.83;0.95;;;15.30;99.90;;;;;;4771530;30;20063;-85
2022/05/22 06:56:48;;;;;;;5.07;0.80;;;15.40;99.90;;;;;;4787844;29;20043;-85
2022/05/22 06:59:15;;;;;;;4.15;0.88;;;15.60;99.90;;;;;;4772574;30;20067;-84
2022/05/22 07:01:40;;;;;;;4.03;1.10;;;15.80;99.90;;;;;;4787850;29;20578;-81
2022/05/22 07:04:06;;;;;;;3.83;1.17;;;15.90;99.90;;;;;;4792336;29;20046;-82
2022/05/22 08:42:42;;;;;;;3.58;0.82;;;20.60;99.90;;;;;;4814280;24;20070;-92
2022/05/22 08:45:17;;;;;;;3.97;0.65;;;20.80;99.90;;;;;;4770405;29;20058;-82
2022/05/22 08:48:04;;;;;;;3.78;0.80;;;21.10;99.90;;;;;;4776799;30;20061;-91
2022/05/22 08:50:30;;;;;;;3.20;0.60;;;21.20;99.90;;;;;;4797261;30;20055;-94
2022/05/22 08:53:14;;;;;;;5.75;0.63;;;21.30;99.90;;;;;;4794187;30;20059;-91
2022/05/22 09:01:22;;;;;;;3.17;0.85;;;21.20;99.90;;;;;;4790509;29;20127;-91
2022/05/22 09:04:08;;;;;;;1.92;0.47;;;21.50;99.90;;;;;;4757243;30;20060;-93
2022/05/22 09:06:46;;;;;;;;;;;21.30;98.30;;;;;;4774408;30;20059;-94
2022/05/22 09:09:12;;;;;;;3.83;0.52;;;21.40;99.90;;;;;;4773426;30;20376;-92
2022/05/22 09:11:56;;;;;;;5.20;0.52;;;21.40;99.20;;;;;;4757222;30;20071;-93
2022/05/22 09:14:28;;;;;;;6.97;0.60;;;21.60;99.90;;;;;;4773086;30;20178;-93
2022/05/22 09:17:07;;;;;;;5.05;0.60;;;21.70;96.50;;;;;;4772770;30;20514;-95
2022/05/22 09:20:07;;;;;;;3.70;0.52;;;21.90;99.90;;;;;;4755805;30;20120;-91
2022/05/22 09:22:54;;;;;;;3.78;0.68;;;22.10;98.60;;;;;;4799369;29;20063;-93
2022/05/22 09:25:33;;;;;;;3.13;0.60;;;22.10;97.90;;;;;;4794360;29;20428;-92
2022/05/22 09:28:24;;;;;;;2.97;0.50;;;22.50;96.80;;;;;;4791983;29;20100;-91
2022/05/22 09:30:54;;;;;;;2.22;0.40;;;22.30;96.20;;;;;;4792276;29;20075;-92
2022/05/22 09:33:41;;;;;;;4.13;0.50;;;22.30;96.20;;;;;;4808820;29;20123;-92
2022/05/22 09:36:12;;;;;;;2.92;0.50;;;22.30;98.00;;;;;;4796919;29;20133;-87
2022/05/22 09:38:46;;;;;;;1.77;0.50;;;22.50;96.70;;;;;;4789477;30;20066;-87
2022/05/22 09:41:51;;;;;;;4.80;0.98;;;22.20;96.60;;;;;;4773538;30;20093;-95
2022/05/22 09:44:23;;;;;;;2.15;0.40;;;22.20;94.90;;;;;;4773760;30;20055;-90
2022/05/22 09:47:00;;;;;;;7.60;0.88;;;22.10;96.20;;;;;;4789982;30;20055;-88
2022/05/22 09:49:46;;;;;;;3.80;0.60;;;22.10;96.60;;;;;;4788814;30;20538;-86
2022/05/22 09:52:18;;;;;;;3.47;0.40;;;22.20;95.60;;;;;;4773214;30;20075;-85
2022/05/22 09:55:07;;;;;;;2.70;0.60;;;22.40;93.60;;;;;;4801762;29;20051;-86
2022/05/22 09:57:51;;;;;;;3.35;0.43;;;22.40;94.40;;;;;;4806970;29;20051;-87
2022/05/22 10:00:21;;;;;;;2.63;0.47;;;22.40;94.40;;;;;;4807739;29;20101;-85
2022/05/22 10:03:09;;;;;;;1.40;0.20;;;22.50;96.60;;;;;;4778898;30;20071;-85
2022/05/22 10:05:40;;;;;;;1.38;0.30;;;22.50;94.20;;;;;;4789711;30;20055;-84
2022/05/22 10:08:30;;;;;;;0.95;0.20;;;22.80;95.70;;;;;;4790211;30;20059;-85
2022/05/22 10:11:28;;;;;;;3.45;0.45;;;22.70;92.40;;;;;;4789157;30;20093;-87
2022/05/22 10:14:05;;;;;;;4.65;0.40;;;22.70;91.60;;;;;;4719379;30;20068;-85
2022/05/22 10:17:01;;;;;;;2.22;0.28;;;22.70;91.30;;;;;;4734558;30;20098;-85
2022/05/22 10:19:35;;;;;;;2.03;0.20;;;22.50;90.20;;;;;;4719376;30;20065;-85
2022/05/22 10:22:15;;;;;;;1.95;0.40;;;22.40;92.40;;;;;;4719486;30;20052;-83
2022/05/22 10:25:05;;;;;;;1.98;0.40;;;22.40;91.00;;;;;;4717022;30;20060;-83
2022/05/22 10:27:47;;;;;;;3.17;0.30;;;22.50;92.90;;;;;;4719270;30;20069;-85
2022/05/22 10:30:20;;;;;;;4.82;0.30;;;22.80;92.40;;;;;;4732341;30;20052;-85
2022/05/22 10:32:59;;;;;;;2.25;0.20;;;23.00;92.90;;;;;;4733352;30;20068;-86
2022/05/22 10:35:33;;;;;;;3.15;0.30;;;22.80;95.00;;;;;;4719106;30;20073;-89
2022/05/22 10:38:09;;;;;;;3.28;0.20;;;23.10;90.60;;;;;;4719656;30;20061;-91
2022/05/22 10:43:19;;;;;;;0.40;0.20;;;23.10;92.70;;;;;;4732120;30;20063;-85
2022/05/22 10:45:45;;;;;;;0.70;0.28;;;23.20;91.50;;;;;;4733151;30;20524;-85
2022/05/22 10:48:21;;;;;;;1.88;0.40;;;22.80;85.50;;;;;;4718359;30;20481;-85
2022/05/22 10:50:55;;;;;;;0.85;0.20;;;22.80;90.90;;;;;;4765375;30;20051;-86
2022/05/22 10:53:30;;;;;;;2.40;0.30;;;22.90;82.60;;;;;;4788422;30;20142;-87
2022/05/22 10:56:04;;;;;;;2.05;0.30;;;23.00;92.70;;;;;;4772092;30;20047;-85
2022/05/22 10:58:33;;;;;;;3.38;0.40;;;23.20;89.70;;;;;;4771973;30;20078;-91
2022/05/22 11:01:03;;;;;;;1.48;0.30;;;23.40;84.40;;;;;;4772076;30;20058;-85
2022/05/22 11:03:34;;;;;;;1.95;0.30;;;23.60;88.40;;;;;;4788601;30;20066;-90
2022/05/22 11:06:14;;;;;;;2.63;0.30;;;23.90;80.50;;;;;;4787621;30;20089;-87
2022/05/22 11:08:51;;;;;;;2.05;0.35;;;23.60;85.50;;;;;;4772017;30;20139;-85
2022/05/22 11:11:23;;;;;;;1.73;0.30;;;23.60;84.20;;;;;;4787595;30;20059;-88
2022/05/22 11:13:51;;;;;;;3.63;0.22;;;23.30;81.20;;;;;;4764317;30;20081;-84
2022/05/22 11:16:28;;;;;;;1.85;0.30;;;23.30;81.90;;;;;;4787968;29;20063;-85
2022/05/22 11:19:17;;;;;;;2.72;0.30;;;23.30;81.10;;;;;;4788266;30;20138;-86
2022/05/22 11:21:42;;;;;;;2.75;0.47;;;23.10;80.40;;;;;;4790564;30;20588;-89
2022/05/22 11:24:14;;;;;;;1.27;0.20;;;23.10;78.50;;;;;;4789204;30;20133;-86
2022/05/22 11:27:07;;;;;;;1.85;0.30;;;23.10;78.70;;;;;;4787909;30;20117;-84
2022/05/22 11:29:48;;;;;;;3.97;0.38;;;23.20;81.90;;;;;;4768335;30;20059;-87
2022/05/22 11:32:37;;;;;;;1.35;0.22;;;23.30;81.20;;;;;;4781657;29;20470;-87
2022/05/22 11:35:25;;;;;;;2.08;0.32;;;23.50;83.10;;;;;;4771590;30;20055;-85
2022/05/22 11:38:19;;;;;;;1.77;0.30;;;23.50;83.60;;;;;;4788218;30;20067;-85
2022/05/22 11:41:03;;;;;;;4.90;0.50;;;23.70;83.10;;;;;;4732990;30;20061;-85
2022/05/22 11:43:56;;;;;;;3.25;0.32;;;23.60;78.90;;;;;;4729428;30;20570;-87
2022/05/22 11:46:43;;;;;;;2.17;0.30;;;23.30;78.10;;;;;;4720960;30;20527;-89
2022/05/22 11:49:46;;;;;;;3.35;0.35;;;23.00;75.80;;;;;;4737853;30;20056;-93
2022/05/22 11:53:06;;;;;;;5.55;0.38;;;22.70;77.60;;;;;;4735752;30;20052;-87
2022/05/22 11:55:27;;;;;;;1.65;0.30;;;22.00;80.30;;;;;;4729777;30;20088;-84
2022/05/22 11:58:13;;;;;;;1.02;0.30;;;22.00;83.10;;;;;;4735826;30;20061;-86
2022/05/22 12:00:41;;;;;;;2.70;0.20;;;22.00;83.00;;;;;;4735444;30;20629;-89
2022/05/22 12:03:34;;;;;;;1.98;0.25;;;21.90;83.50;;;;;;4735539;30;20538;-85
2022/05/22 12:06:17;;;;;;;3.85;0.38;;;21.90;82.50;;;;;;4736651;30;20055;-93
2022/05/22 12:08:50;;;;;;;2.15;0.30;;;21.90;86.90;;;;;;4739202;30;20056;-93
2022/05/22 12:11:46;;;;;;;4.13;0.30;;;21.80;89.10;;;;;;4740533;30;20056;-93
2022/05/22 12:14:27;;;;;;;2.70;0.30;;;21.80;90.10;;;;;;4727212;30;20057;-91
2022/05/22 12:17:01;;;;;;;2.22;0.30;;;21.90;90.00;;;;;;4751007;30;20055;-94
2022/05/22 12:19:47;;;;;;;2.28;0.40;;;22.00;85.30;;;;;;4795634;30;20066;-94
2022/05/22 12:23:07;;;;;;;;;;;21.70;85.50;;;;;;4777318;30;20484;-94
2022/05/22 12:25:21;;;;;;;2.88;0.32;;;21.50;82.20;;;;;;4793703;30;20295;-88
2022/05/22 12:27:49;;;;;;;2.78;0.57;;;21.50;88.50;;;;;;4780762;30;20059;-90
2022/05/22 12:30:31;;;;;;;2.53;0.40;;;21.90;84.70;;;;;;4790999;30;20053;-92
2022/05/22 12:33:04;;;;;;;2.22;0.30;;;22.20;82.10;;;;;;4790581;30;20510;-93
2022/05/22 12:35:30;;;;;;;1.15;0.20;;;22.60;90.10;;;;;;4790862;29;20112;-84
2022/05/22 12:38:04;;;;;;;4.30;0.47;;;23.10;84.70;;;;;;4790915;30;20461;-86
2022/05/22 12:40:39;;;;;;;1.02;0.20;;;23.30;84.00;;;;;;4790643;30;20058;-86
2022/05/22 12:43:08;;;;;;;1.27;0.40;;;23.90;90.30;;;;;;4773750;29;20058;-86
2022/05/22 12:45:35;;;;;;;1.52;0.35;;;24.30;87.70;;;;;;4775161;30;20059;-83
2022/05/22 12:48:25;;;;;;;1.77;0.32;;;24.60;81.20;;;;;;4774251;29;20505;-83
2022/05/22 12:50:54;;;;;;;3.65;0.40;;;24.90;81.60;;;;;;4788282;29;20054;-82
2022/05/22 12:53:28;;;;;;;1.42;0.30;;;25.10;79.60;;;;;;4789741;29;20138;-83
2022/05/22 12:55:55;;;;;;;1.87;0.27;;;25.20;77.60;;;;;;4790078;30;20064;-85
2022/05/22 12:58:37;;;;;;;2.70;0.40;;;25.60;79.20;;;;;;4790623;29;20070;-82
2022/05/22 13:01:22;;;;;;;1.95;0.22;;;25.50;74.90;;;;;;4789936;30;20067;-82
2022/05/22 13:03:51;;;;;;;2.92;0.45;;;25.50;78.30;;;;;;4792724;30;20047;-82
2022/05/22 13:06:42;;;;;;;1.17;0.30;;;25.50;77.50;;;;;;4778657;30;20493;-90
2022/05/22 13:09:20;;;;;;;1.48;0.25;;;25.40;78.50;;;;;;4779096;30;20055;-89
2022/05/22 13:11:53;;;;;;;1.02;0.20;;;25.30;75.20;;;;;;4764891;30;20055;-90
2022/05/22 13:14:31;;;;;;;0.35;0.20;;;25.20;74.90;;;;;;4773918;30;20526;-88
2022/05/22 13:16:58;;;;;;;1.10;0.20;;;24.90;74.60;;;;;;4789582;30;20087;-93
2022/05/22 13:19:26;;;;;;;1.30;0.30;;;24.90;72.30;;;;;;4775694;30;20077;-91
2022/05/22 13:21:53;;;;;;;2.03;0.45;;;24.70;71.90;;;;;;4791122;30;20066;-94
2022/05/22 13:24:24;;;;;;;2.22;0.40;;;24.70;75.10;;;;;;4778114;29;20140;-93
2022/05/22 13:27:00;;;;;;;3.38;0.40;;;24.90;75.30;;;;;;4790075;30;20055;-94
2022/05/22 13:29:56;;;;;;;2.92;0.75;;;25.10;78.60;;;;;;4792121;30;20541;-93
2022/05/22 13:32:28;;;;;;;1.98;0.30;;;25.20;77.40;;;;;;4734286;30;20073;-93
2022/05/22 13:34:53;;;;;;;1.35;0.20;;;25.40;78.10;;;;;;4735426;30;20053;-93
2022/05/22 13:37:27;;;;;;;2.40;0.40;;;25.40;73.80;;;;;;4735308;30;20103;-93
2022/05/22 13:40:13;;;;;;;2.92;0.30;;;25.30;74.30;;;;;;4742730;30;20091;-93
2022/05/22 13:43:06;;;;;;;2.88;0.60;;;25.10;71.20;;;;;;4739575;30;20123;-91
2022/05/22 13:45:56;;;;;;;3.45;0.40;;;24.70;77.80;;;;;;4736977;30;20067;-94
2022/05/22 13:48:48;;;;;;;3.60;0.65;;;24.50;78.10;;;;;;4744516;30;20096;-96
2022/05/22 13:54:51;;;;;;;1.17;0.43;;;24.60;78.80;;;;;;4743994;30;20048;-95
2022/05/22 13:57:27;;;;;;;3.22;0.35;;;24.50;73.50;;;;;;4735832;30;20061;-93
2022/05/22 14:00:00;;;;;;;2.17;0.40;;;24.30;76.10;;;;;;4722003;30;20045;-92
2022/05/22 14:02:36;;;;;;;1.75;0.28;;;24.10;75.40;;;;;;4739445;30;20574;-93
2022/05/22 14:05:08;;;;;;;2.05;0.30;;;24.30;77.20;;;;;;4735841;30;20052;-93
2022/05/22 14:07:43;;;;;;;2.00;0.50;;;24.30;74.60;;;;;;4735515;30;20111;-91
2022/05/22 14:10:09;;;;;;;5.17;0.43;;;24.20;79.80;;;;;;4752096;30;20063;-91
2022/05/22 14:12:40;;;;;;;4.10;0.40;;;24.40;76.60;;;;;;4779218;30;20449;-95
2022/05/22 14:15:16;;;;;;;2.20;0.40;;;24.50;78.00;;;;;;4779874;30;20060;-92
2022/05/22 14:17:42;;;;;;;3.20;0.35;;;24.60;77.10;;;;;;4781432;29;20090;-92
2022/05/22 14:20:15;;;;;;;2.45;0.47;;;24.50;77.90;;;;;;4778978;30;20094;-92
2022/05/22 14:22:48;;;;;;;1.65;0.40;;;24.30;81.20;;;;;;4779040;30;20063;-92
2022/05/22 14:25:22;;;;;;;2.47;0.40;;;24.20;76.20;;;;;;4786413;29;20146;-95
2022/05/22 14:27:52;;;;;;;2.15;0.30;;;24.00;80.50;;;;;;4781081;30;20056;-93
2022/05/22 14:30:33;;;;;;;1.75;0.30;;;23.90;79.40;;;;;;4785771;24;20143;-92
2022/05/22 14:36:03;;;;;;;2.45;0.50;;;24.00;78.40;;;;;;4803429;24;20072;-95
2022/05/22 14:38:56;;;;;;;2.45;0.40;;;24.10;81.60;;;;;;4773766;30;20063;-91
2022/05/22 14:41:32;;;;;;;2.88;0.30;;;24.00;78.20;;;;;;4771467;24;20537;-92
2022/05/22 14:44:06;;;;;;;2.45;0.40;;;24.00;82.00;;;;;;4791008;30;20598;-93
2022/05/22 14:46:48;;;;;;;2.10;0.47;;;23.90;78.50;;;;;;4792570;30;20051;-90
2022/05/22 14:49:19;;;;;;;1.85;0.30;;;23.70;82.20;;;;;;4778746;30;20124;-95
2022/05/22 14:52:25;;;;;;;4.20;0.50;;;23.70;81.70;;;;;;4788480;30;20124;-93
2022/05/22 14:55:24;;;;;;;2.75;0.40;;;23.50;83.00;;;;;;4783091;30;20059;-88
2022/05/22 14:58:31;;;;;;;2.90;0.50;;;23.50;82.30;;;;;;4834078;24;20058;-86
2022/05/22 15:01:14;;;;;;;2.80;0.60;;;23.60;81.70;;;;;;4797194;24;20499;-86
2022/05/22 15:03:50;;;;;;;2.85;0.43;;;23.80;81.60;;;;;;4776580;30;20063;-84
2022/05/22 15:06:32;;;;;;;1.38;0.50;;;23.80;81.90;;;;;;4791171;30;20059;-84
2022/05/22 15:09:09;;;;;;;4.05;0.30;;;23.60;82.50;;;;;;4784191;30;20062;-84
2022/05/22 15:11:40;;;;;;;1.13;0.30;;;23.40;84.40;;;;;;4800583;30;20059;-89
2022/05/22 15:14:26;;;;;;;3.15;0.55;;;23.30;85.00;;;;;;4785655;30;20067;-87
2022/05/22 15:16:55;;;;;;;3.13;0.40;;;23.20;84.80;;;;;;4774147;30;20057;-84
2022/05/22 15:25:44;;;;;;;3.20;0.60;;;23.90;81.00;;;;;;4788155;29;20060;-84
2022/05/22 15:28:31;;;;;;;1.38;0.30;;;24.00;84.50;;;;;;4774389;30;20122;-83
2022/05/22 15:31:01;;;;;;;2.15;0.30;;;23.90;81.80;;;;;;4773123;24;20135;-87
2022/05/22 15:33:43;;;;;;;2.03;0.40;;;23.40;80.20;;;;;;4784030;30;20055;-94
2022/05/22 15:36:42;;;;;;;2.95;0.60;;;23.10;82.10;;;;;;4782649;30;20063;-84
2022/05/22 15:39:14;;;;;;;3.08;0.47;;;22.90;85.80;;;;;;4780713;30;20047;-90
2022/05/22 15:41:45;;;;;;;6.38;0.57;;;22.70;85.20;;;;;;4780701;30;20060;-88
2022/05/22 15:44:14;;;;;;;1.02;0.30;;;22.60;84.10;;;;;;4778301;30;20132;-94
2022/05/22 15:46:53;;;;;;;3.15;0.77;;;22.40;86.50;;;;;;4781487;30;20405;-83
2022/05/22 15:52:09;;;;;;;2.33;0.30;;;22.30;86.30;;;;;;4771614;30;20447;-96
2022/05/22 15:54:37;;;;;;;3.00;0.50;;;22.10;90.40;;;;;;4788384;29;20063;-93
2022/05/22 15:57:04;;;;;;;2.47;0.30;;;22.00;90.80;;;;;;4774050;30;20059;-94
2022/05/22 15:59:31;;;;;;;2.03;0.40;;;22.00;90.30;;;;;;4772099;30;20055;-88
2022/05/22 16:01:58;;;;;;;3.22;0.68;;;22.00;91.90;;;;;;4788653;30;20055;-90
2022/05/22 16:04:24;;;;;;;2.72;0.30;;;22.00;89.90;;;;;;4792166;30;20053;-87
2022/05/22 16:06:50;;;;;;;1.92;0.40;;;21.90;91.70;;;;;;4790250;30;20055;-86
2022/05/22 16:09:16;;;;;;;1.85;0.30;;;21.90;91.40;;;;;;4786976;30;20130;-86
2022/05/22 16:11:44;;;;;;;2.22;0.30;;;21.80;91.30;;;;;;4787762;29;20058;-85
2022/05/22 16:14:12;;;;;;;1.60;0.40;;;21.70;91.40;;;;;;4787032;30;20078;-85
2022/05/22 16:16:41;;;;;;;2.75;0.90;;;21.60;91.60;;;;;;4786782;30;20051;-83
2022/05/22 16:19:10;;;;;;;1.55;0.30;;;21.50;92.70;;;;;;4787010;30;20543;-82
2022/05/22 16:21:36;;;;;;;1.67;0.32;;;21.40;92.20;;;;;;4787590;30;20061;-83
2022/05/22 16:24:02;;;;;;;1.17;0.43;;;21.40;93.10;;;;;;4770180;30;20056;-84
2022/05/22 16:26:27;;;;;;;3.83;0.50;;;21.40;93.10;;;;;;4771142;29;20054;-84
2022/05/22 16:28:53;;;;;;;0.95;0.20;;;21.50;92.90;;;;;;4787650;29;20062;-85
2022/05/22 16:31:32;;;;;;;2.55;0.40;;;21.60;92.90;;;;;;4789614;29;20059;-83
2022/05/22 16:34:00;;;;;;;1.13;0.20;;;21.80;94.30;;;;;;4789511;30;20417;-84
2022/05/22 16:36:26;;;;;;;1.50;0.32;;;21.90;92.90;;;;;;4789789;30;20421;-83
2022/05/22 16:38:52;;;;;;;2.38;0.30;;;21.80;92.40;;;;;;4789697;30;20056;-84
2022/05/22 16:41:18;;;;;;;1.30;0.22;;;21.70;93.10;;;;;;4789770;30;20058;-82
2022/05/22 16:43:44;;;;;;;2.85;0.30;;;21.70;93.40;;;;;;4789715;29;20123;-82
2022/05/22 16:46:14;;;;;;;3.03;0.40;;;21.70;93.00;;;;;;4789457;30;20130;-82
2022/05/22 16:54:09;;;;;;;0.73;0.22;;;21.40;93.00;;;;;;4789333;29;20608;-82
2022/05/22 16:56:35;;;;;;;1.77;0.45;;;21.40;93.40;;;;;;4782642;30;20059;-82
2022/05/22 16:59:01;;;;;;;1.85;0.47;;;21.50;93.30;;;;;;4788773;29;20080;-83
2022/05/22 17:01:27;;;;;;;3.13;0.60;;;21.50;94.10;;;;;;4788857;30;20078;-81